Rechercher aéroport 
image banner adimage banner adimage banner ad
image banner ad

CA589 - Fort Good Hope (Cep7)

Situé à , Canada

ICAO - , IATA -

Données fournies par Airmate  

Information générale

Coordonnées: N66°16'0" W128°39'0"
Élévation : feet MSL.
 
Voir autres Aéroports à Northwest Territories

Données opérationnelles

Special qualification required
Heure actuelle UTC:
Heure actuelle locale:
Météo à : CYGH - Fort Good Hope ( 3 km )
METAR: CYGH 062300Z 09005KT 25SM FEW140 FEW210 M23/M26 A2958 RMK AS2CI1 CI TR SLP031
TAF: TAF CYGH 061740Z 0618/0624 VRB03KT P6SM SCT140 BKN220 TEMPO 0618/0622 BKN140 FM062200 VRB03KT P6SM FEW080 RMK NXT FCST BY 071500Z
Voir NOTAMs / SUP AIP / TFR affectant cet aéroport [VIEW]
Fréquences de communication: [VIEW]

Pistes:

Coordonnées de l'aéroport

Adresse: Canada

Vue satellite de CA589